Terminal Aerodrome Forecast
Issued by NWS

Home | Current Version | Previous Version | Text Only | Print | Product List | Glossary On
Versions: 1 2 3 4 5 6 7 8 9 10 11 12 13 14 15 16 17 18 19 20
156
FTUS44 KLZK 080537
TAFPBF
TAF
KPBF 080537Z 0806/0906 01008G16KT P6SM OVC025
      TEMPO 0806/0809 -DZSN
     FM081400 35009G16KT P6SM SCT050 BKN250
     FM090100 35006KT P6SM BKN250=

USA.gov is the U.S. government's official web portal to all federal, state and local government web resources and services.